Wolston, United Kingdom
Current Conditions -  °F | °C
As of 3:20 PM on Wednesday 22 Oct 2014 (Local Time) from EGBE Reporting Station
Light Rain Light Rain  
Wind Chill: 52°   Ceiling: Unl
Heat Index: 52°   Visibility: 6mi
Dew Point: 50°   Wind: 6mph
Humidity: 94%   Direction: 210°SSW
Pressure: 30.21"   Gusts: NA
Location:  52.38°N, 1.4°W
Report Text: EGBE 221420Z 21005KT 9999 -RA SCT030 11/10 Q1023
Loading
Personal Weather Stations






























Interactive Weather Map New forecast layout! Learn more

10-Day Weather Forecast

Advertisements
Track Severe Weather on mobile